createdAt,value
2019-02-05T00:01:26.974Z,67.99
2019-02-05T00:03:57.198Z,67.64
2019-02-05T00:06:26.894Z,67.79
2019-02-05T00:08:56.674Z,68.07
2019-02-05T00:11:26.256Z,68.36
2019-02-05T00:13:56.197Z,67.98
2019-02-05T00:16:25.760Z,68.01
2019-02-05T00:18:55.491Z,68.45
2019-02-05T00:21:25.175Z,68.45
2019-02-05T00:23:54.956Z,68.16
2019-02-05T00:26:24.827Z,67.89
2019-02-05T00:28:54.501Z,68.05
2019-02-05T00:31:24.189Z,68.43
2019-02-05T00:33:54.298Z,68.69
2019-02-05T00:36:24.140Z,68.66
2019-02-05T00:38:54.117Z,69.00
2019-02-05T00:41:23.961Z,68.58
2019-02-05T00:43:53.687Z,68.68
2019-02-05T00:46:23.313Z,68.80
2019-02-05T00:48:53.235Z,69.01
2019-02-05T00:51:23.018Z,68.60
2019-02-05T00:53:52.485Z,68.48
2019-02-05T00:56:22.157Z,68.59
2019-02-05T00:58:51.775Z,68.26
2019-02-05T01:01:21.563Z,67.96
2019-02-05T01:03:51.245Z,67.71
2019-02-05T01:06:20.978Z,67.98
2019-02-05T01:08:50.602Z,67.46
2019-02-05T01:11:20.312Z,67.13
2019-02-05T01:13:49.902Z,67.31
2019-02-05T01:16:20.020Z,67.21
2019-02-05T01:18:49.591Z,67.56
2019-02-05T01:21:19.374Z,67.72
2019-02-05T01:23:49.109Z,67.89
2019-02-05T01:26:28.703Z,67.72
2019-02-05T01:28:50.206Z,67.61
2019-02-05T01:31:19.825Z,67.87
2019-02-05T01:33:49.507Z,68.11
2019-02-05T01:36:19.287Z,68.70
2019-02-05T01:38:49.052Z,68.22
2019-02-05T01:41:18.841Z,67.93
2019-02-05T01:43:48.718Z,67.40
2019-02-05T01:46:18.525Z,67.02
2019-02-05T01:48:48.061Z,67.05
2019-02-05T01:51:17.802Z,67.00
2019-02-05T01:53:47.412Z,67.86
2019-02-05T01:56:17.050Z,67.92
2019-02-05T01:58:47.094Z,68.37
2019-02-05T02:01:16.955Z,68.61
2019-02-05T02:03:46.616Z,68.71
2019-02-05T02:06:16.562Z,69.18
2019-02-05T02:08:46.238Z,69.38
2019-02-05T02:11:15.821Z,68.88
2019-02-05T02:13:45.896Z,69.26
2019-02-05T02:16:15.787Z,69.00
2019-02-05T02:18:45.451Z,69.33
2019-02-05T02:21:15.138Z,69.15
2019-02-05T02:23:44.905Z,69.20
2019-02-05T02:26:14.513Z,69.23
2019-02-05T02:28:44.262Z,69.45
2019-02-05T02:31:14.033Z,69.21
2019-02-05T02:33:43.765Z,69.52
2019-02-05T02:36:13.541Z,69.65
2019-02-05T02:38:43.232Z,69.77
2019-02-05T02:41:12.897Z,69.69
2019-02-05T02:43:42.577Z,69.88
2019-02-05T02:46:12.287Z,70.18
2019-02-05T02:48:41.941Z,70.58
2019-02-05T02:51:11.601Z,70.40
2019-02-05T02:53:41.203Z,70.38
2019-02-05T02:56:10.894Z,70.20
2019-02-05T02:58:40.633Z,70.21
2019-02-05T03:01:10.415Z,69.47
2019-02-05T03:03:40.089Z,69.09
2019-02-05T03:06:09.775Z,68.74
2019-02-05T03:08:39.541Z,68.54
2019-02-05T03:11:09.431Z,68.75
2019-02-05T03:13:39.047Z,68.56
2019-02-05T03:16:08.715Z,68.71
2019-02-05T03:18:38.556Z,68.58
2019-02-05T03:21:08.472Z,69.10
2019-02-05T03:23:38.115Z,69.40
2019-02-05T03:26:07.773Z,69.55
2019-02-05T03:28:37.456Z,69.25
2019-02-05T03:31:07.235Z,68.88
2019-02-05T03:33:36.942Z,69.26
2019-02-05T03:36:06.886Z,69.45
2019-02-05T03:38:36.563Z,69.91
2019-02-05T03:41:07.309Z,70.25
2019-02-05T03:43:38.327Z,70.17
2019-02-05T03:46:09.848Z,70.06
2019-02-05T03:48:40.583Z,69.96
2019-02-05T03:51:21.056Z,69.19
2019-02-05T03:53:55.955Z,68.85
2019-02-05T03:57:30.473Z,68.72
2019-02-05T04:00:22.076Z,69.00
2019-02-05T04:03:43.189Z,68.73
2019-02-05T04:06:56.749Z,68.87
2019-02-05T04:10:11.194Z,68.64
2019-02-05T04:13:07.008Z,69.26
2019-02-05T04:16:04.267Z,69.31
2019-02-05T04:18:46.303Z,69.71
2019-02-05T04:22:01.028Z,69.93
2019-02-05T04:25:10.460Z,70.05
2019-02-05T04:28:04.249Z,69.99
2019-02-05T04:31:15.719Z,70.10
2019-02-05T04:34:08.486Z,70.08
2019-02-05T04:37:03.963Z,70.81
2019-02-05T04:39:48.310Z,71.49
2019-02-05T04:42:59.531Z,71.95
2019-02-05T04:46:10.937Z,72.45
2019-02-05T04:49:08.071Z,72.62
2019-02-05T04:52:09.838Z,72.93
2019-02-05T04:54:53.828Z,72.82
2019-02-05T04:57:58.116Z,73.03
2019-02-05T05:00:54.231Z,72.32
2019-02-05T05:03:34.119Z,72.25
2019-02-05T05:06:27.160Z,72.22
2019-02-05T05:09:14.101Z,72.08
2019-02-05T05:11:43.659Z,71.39
2019-02-05T05:14:13.421Z,70.87
2019-02-05T05:16:43.501Z,70.80
2019-02-05T05:19:13.383Z,70.62
2019-02-05T05:21:43.179Z,70.53
2019-02-05T05:24:12.951Z,70.10
2019-02-05T05:26:42.674Z,69.69
2019-02-05T05:29:12.331Z,69.46
2019-02-05T05:31:42.229Z,69.35
2019-02-05T05:34:11.767Z,69.29
2019-02-05T05:36:49.454Z,68.91
2019-02-05T05:39:19.711Z,69.74
2019-02-05T05:41:49.106Z,69.15
2019-02-05T05:44:18.518Z,68.55
2019-02-05T05:46:47.905Z,68.78
2019-02-05T05:49:17.637Z,68.52
2019-02-05T05:51:47.149Z,68.61
2019-02-05T05:54:16.838Z,68.48
2019-02-05T05:56:46.576Z,68.72
2019-02-05T05:59:16.224Z,68.45
2019-02-05T06:01:45.912Z,68.83
2019-02-05T06:04:15.536Z,69.09
2019-02-05T06:06:45.714Z,68.86
2019-02-05T06:09:15.547Z,68.72
2019-02-05T06:11:45.141Z,68.08
2019-02-05T06:14:14.860Z,68.75
2019-02-05T06:16:44.532Z,68.47
2019-02-05T06:19:14.312Z,68.16
2019-02-05T06:21:44.319Z,68.55
2019-02-05T06:24:14.066Z,68.16
2019-02-05T06:26:44.000Z,67.95
2019-02-05T06:29:13.726Z,67.65
2019-02-05T06:31:43.657Z,67.59
2019-02-05T06:34:13.347Z,67.39
2019-02-05T06:36:43.122Z,67.20
2019-02-05T06:39:12.688Z,67.22
2019-02-05T06:41:42.469Z,67.13
2019-02-05T06:44:12.037Z,67.49
2019-02-05T06:46:41.830Z,67.64
2019-02-05T06:49:11.506Z,67.36
2019-02-05T06:51:41.409Z,67.45
2019-02-05T06:54:11.152Z,67.16
2019-02-05T06:56:42.457Z,67.81
2019-02-05T06:59:12.154Z,67.62
2019-02-05T07:01:41.910Z,67.87
2019-02-05T07:04:11.638Z,67.36
2019-02-05T07:06:41.223Z,67.57
2019-02-05T07:09:11.698Z,67.42
2019-02-05T07:11:41.441Z,67.06
2019-02-05T07:14:11.247Z,65.95
2019-02-05T07:16:40.751Z,65.95
2019-02-05T07:19:10.438Z,66.10
2019-02-05T07:21:40.175Z,66.54
2019-02-05T07:24:09.873Z,66.38
2019-02-05T07:26:39.608Z,66.57
2019-02-05T07:29:10.421Z,66.69
2019-02-05T07:31:40.214Z,67.06
2019-02-05T07:34:10.092Z,67.68
2019-02-05T07:36:39.902Z,68.30
2019-02-05T07:39:10.697Z,68.26
2019-02-05T07:41:40.410Z,68.69
2019-02-05T07:44:10.153Z,68.82
2019-02-05T07:46:39.875Z,69.01
2019-02-05T07:49:09.558Z,69.00
2019-02-05T07:51:39.272Z,68.70
2019-02-05T07:54:08.780Z,68.66
2019-02-05T07:56:38.768Z,68.64
2019-02-05T07:59:10.222Z,68.66
2019-02-05T08:01:39.868Z,67.93
2019-02-05T08:04:09.661Z,67.74
2019-02-05T08:06:39.383Z,67.75
2019-02-05T08:09:11.047Z,67.53
2019-02-05T08:11:41.591Z,67.56
2019-02-05T08:14:11.628Z,66.88
2019-02-05T08:16:41.300Z,66.69
2019-02-05T08:19:11.041Z,66.64
2019-02-05T08:21:40.811Z,66.31
2019-02-05T08:24:10.583Z,66.43
2019-02-05T08:26:40.168Z,66.57
2019-02-05T08:29:21.145Z,66.01
2019-02-05T08:31:41.770Z,66.11
2019-02-05T08:34:11.463Z,66.35
2019-02-05T08:36:41.221Z,66.01
2019-02-05T08:39:11.566Z,65.86
2019-02-05T08:41:41.250Z,66.05
2019-02-05T08:44:11.003Z,66.08
2019-02-05T08:46:40.808Z,65.87
2019-02-05T08:49:10.456Z,65.72
2019-02-05T08:51:40.296Z,66.07
2019-02-05T08:54:10.072Z,66.00
2019-02-05T08:56:39.906Z,65.62
2019-02-05T08:59:09.726Z,65.16
2019-02-05T09:01:39.713Z,65.16
2019-02-05T09:04:09.420Z,64.65
2019-02-05T09:06:39.213Z,64.65
2019-02-05T09:09:10.078Z,64.30
2019-02-05T09:11:39.762Z,64.40
2019-02-05T09:14:10.991Z,64.40
2019-02-05T09:16:40.987Z,64.60
2019-02-05T09:19:11.545Z,64.60
2019-02-05T09:21:41.396Z,63.35
2019-02-05T09:24:11.034Z,63.35
2019-02-05T09:26:40.936Z,62.95
2019-02-05T09:29:10.620Z,63.43
2019-02-05T09:46:21.902Z,59.26
2019-02-05T09:48:51.551Z,59.04
2019-02-05T09:51:21.595Z,59.52
2019-02-05T09:53:51.157Z,60.12
2019-02-05T09:56:20.830Z,60.27
2019-02-05T09:58:50.568Z,59.58
2019-02-05T10:01:20.231Z,59.62
2019-02-05T10:03:50.036Z,59.72
2019-02-05T10:06:19.694Z,59.38
2019-02-05T10:08:49.543Z,58.68
2019-02-05T10:11:19.257Z,57.12
2019-02-05T10:13:48.922Z,55.95
2019-02-05T10:16:18.792Z,53.45
2019-02-05T10:18:48.439Z,51.81
2019-02-05T10:21:18.267Z,50.77
2019-02-05T10:23:48.344Z,46.91
2019-02-05T10:26:18.037Z,44.58
2019-02-05T10:28:47.903Z,42.32
2019-02-05T10:31:17.589Z,38.71
2019-02-05T10:33:54.842Z,34.14
2019-02-05T10:36:18.618Z,29.57
2019-02-05T10:38:48.502Z,27.23
2019-02-05T10:41:18.187Z,24.81
2019-02-05T10:43:47.963Z,23.56
2019-02-05T10:46:17.842Z,21.84
2019-02-05T10:48:47.555Z,22.01
2019-02-05T10:51:17.107Z,24.00
2019-02-05T10:53:46.781Z,24.73
2019-02-05T10:56:16.552Z,24.14
2019-02-05T10:58:46.313Z,24.15
2019-02-05T11:01:15.994Z,24.57
2019-02-05T11:03:45.674Z,25.53
2019-02-05T11:06:15.492Z,26.66
2019-02-05T11:08:45.118Z,26.83
2019-02-05T11:13:44.192Z,28.88
2019-02-05T11:16:13.938Z,30.91
2019-02-05T11:18:43.630Z,33.21
2019-02-05T11:21:13.289Z,35.50
2019-02-05T11:23:43.021Z,37.66
2019-02-05T11:26:12.861Z,38.79
2019-02-05T11:28:42.423Z,38.99
2019-02-05T11:31:11.993Z,39.48
2019-02-05T11:33:41.679Z,41.35
2019-02-05T11:36:11.450Z,43.37
2019-02-05T11:38:41.133Z,44.04
2019-02-05T11:41:13.662Z,44.98
2019-02-05T11:43:42.254Z,45.35
2019-02-05T11:46:11.960Z,45.55
2019-02-05T11:48:41.591Z,43.63
2019-02-05T11:51:11.349Z,42.77
2019-02-05T11:53:40.941Z,41.34
2019-02-05T11:56:10.755Z,40.18
2019-02-05T11:58:40.796Z,38.83
2019-02-05T12:01:14.800Z,36.36
2019-02-05T12:03:44.497Z,34.63
2019-02-05T12:06:14.207Z,34.12
2019-02-05T12:08:43.913Z,35.46
2019-02-05T12:11:13.531Z,37.42
2019-02-05T12:13:43.457Z,38.78
2019-02-05T12:16:13.170Z,40.22
2019-02-05T12:18:42.870Z,41.13
2019-02-05T12:21:12.530Z,41.50
2019-02-05T12:23:42.366Z,42.32
2019-02-05T12:26:12.101Z,43.02
2019-02-05T12:28:41.994Z,43.01
2019-02-05T12:31:12.079Z,43.04
2019-02-05T12:33:41.926Z,44.09
2019-02-05T12:36:11.717Z,43.93
2019-02-05T12:38:41.412Z,44.59
2019-02-05T12:41:10.967Z,44.72
2019-02-05T12:43:40.735Z,44.58
2019-02-05T13:07:28.703Z,47.39
2019-02-05T13:09:58.283Z,48.08
2019-02-05T13:12:27.955Z,48.68
2019-02-05T13:14:58.035Z,49.22
2019-02-05T13:17:27.736Z,49.73
2019-02-05T13:19:57.529Z,50.26
2019-02-05T13:22:27.325Z,50.71
2019-02-05T13:24:56.870Z,51.03
2019-02-05T13:27:26.494Z,50.65
2019-02-05T13:29:56.235Z,50.81
2019-02-05T13:32:26.078Z,51.37
2019-02-05T13:34:55.852Z,51.29
2019-02-05T13:37:25.641Z,51.31
2019-02-05T13:39:55.522Z,50.65
2019-02-05T13:42:25.541Z,50.34
2019-02-05T13:44:55.206Z,50.38
2019-02-05T13:47:24.940Z,50.31
2019-02-05T13:49:54.703Z,50.09
2019-02-05T13:52:24.448Z,50.42
2019-02-05T13:54:54.138Z,50.61
2019-02-05T13:57:24.214Z,51.07
2019-02-05T13:59:53.733Z,51.39
2019-02-05T14:02:23.428Z,50.97
2019-02-05T14:04:53.207Z,51.04
2019-02-05T14:07:22.813Z,51.68
2019-02-05T14:09:52.530Z,51.87
2019-02-05T14:12:22.543Z,51.18
2019-02-05T14:14:52.186Z,52.13
2019-02-05T14:17:22.032Z,52.16
2019-02-05T14:19:51.809Z,52.39
2019-02-05T14:22:21.580Z,53.31
2019-02-05T14:24:51.200Z,53.41
2019-02-05T14:27:21.248Z,52.92
2019-02-05T14:29:50.960Z,53.71
2019-02-05T14:32:20.642Z,54.00
2019-02-05T14:34:50.474Z,54.12
2019-02-05T14:37:20.242Z,54.55
2019-02-05T14:39:49.915Z,55.22
2019-02-05T14:42:19.757Z,54.28
2019-02-05T14:44:49.656Z,54.68
2019-02-05T14:47:19.359Z,54.58
2019-02-05T14:49:49.162Z,55.18
2019-02-05T14:52:18.913Z,55.70
2019-02-05T14:54:48.647Z,55.73
2019-02-05T14:57:18.330Z,55.64
2019-02-05T14:59:48.094Z,55.35
2019-02-05T15:02:17.681Z,55.82
2019-02-05T15:04:47.485Z,55.68
2019-02-05T15:07:17.130Z,56.12
2019-02-05T15:09:47.113Z,56.43
2019-02-05T15:12:16.807Z,56.59
2019-02-05T15:14:46.561Z,57.01
2019-02-05T15:17:16.093Z,57.96
2019-02-05T15:19:45.866Z,57.55
2019-02-05T15:22:15.492Z,58.02
2019-02-05T15:24:45.483Z,58.36
2019-02-05T15:27:15.175Z,58.38
2019-02-05T15:29:45.041Z,58.95
2019-02-05T15:32:33.606Z,59.11
2019-02-05T15:35:04.377Z,59.93
2019-02-05T15:37:34.126Z,59.74
2019-02-05T15:40:05.475Z,60.23
2019-02-05T15:42:35.261Z,60.07
2019-02-05T15:45:06.582Z,60.06
2019-02-05T15:47:36.460Z,60.96
2019-02-05T15:50:06.906Z,61.14
2019-02-05T15:52:36.702Z,61.91
2019-02-05T15:55:07.324Z,61.85
2019-02-05T15:57:37.019Z,61.23
2019-02-05T16:00:08.737Z,61.31
2019-02-05T16:02:38.722Z,61.23
2019-02-05T16:05:09.509Z,62.42
2019-02-05T16:07:39.381Z,62.35
2019-02-05T16:10:11.433Z,62.22
2019-02-05T16:12:41.182Z,62.92
2019-02-05T16:15:11.410Z,62.64
2019-02-05T16:17:41.215Z,62.20
2019-02-05T16:20:11.804Z,63.08
2019-02-05T16:22:41.744Z,63.08
2019-02-05T16:25:12.588Z,63.47
2019-02-05T16:27:42.158Z,63.71
2019-02-05T16:30:17.410Z,63.65
2019-02-05T16:32:47.320Z,63.81
2019-02-05T16:35:17.407Z,64.32
2019-02-05T16:37:47.272Z,64.32
2019-02-05T16:40:21.977Z,63.98
2019-02-05T16:42:52.160Z,64.13
2019-02-05T16:45:23.889Z,64.13
2019-02-05T16:47:53.675Z,64.53
2019-02-05T16:50:31.826Z,64.96
2019-02-05T16:53:01.868Z,64.96
2019-02-05T16:55:32.102Z,64.99
2019-02-05T16:58:02.059Z,64.64
2019-02-05T17:00:33.089Z,64.86
2019-02-05T17:03:02.710Z,63.99
2019-02-05T17:05:34.458Z,63.60
2019-02-05T17:08:04.546Z,64.01
2019-02-05T17:10:34.235Z,64.41
2019-02-05T17:13:04.482Z,64.19
2019-02-05T17:15:34.192Z,63.99
2019-02-05T17:18:04.193Z,63.30
2019-02-05T17:20:34.523Z,63.30
2019-02-05T17:23:04.963Z,63.16
2019-02-05T17:25:36.086Z,63.32
2019-02-05T17:28:06.731Z,63.32
2019-02-05T17:30:38.054Z,63.18
2019-02-05T17:33:08.212Z,63.18
2019-02-05T17:35:38.189Z,62.75
2019-02-05T17:38:09.432Z,62.72
2019-02-05T17:40:40.910Z,62.42
2019-02-05T17:43:11.049Z,62.24
2019-02-05T17:45:43.645Z,62.24
2019-02-05T17:48:16.404Z,62.03
2019-02-05T17:50:46.823Z,62.36
2019-02-05T17:53:16.553Z,62.79
2019-02-05T17:55:47.163Z,62.84
2019-02-05T17:58:17.009Z,63.15
2019-02-05T18:00:58.075Z,62.75
2019-02-05T18:03:27.720Z,62.23
2019-02-05T18:05:57.443Z,62.61
2019-02-05T18:08:27.113Z,62.20
2019-02-05T18:10:56.788Z,61.81
2019-02-05T18:13:26.737Z,62.41
2019-02-05T18:15:56.656Z,62.50
2019-02-05T18:18:26.371Z,62.87
2019-02-05T18:20:56.753Z,62.93
2019-02-05T18:23:26.673Z,62.29
2019-02-05T18:25:56.585Z,62.86
2019-02-05T18:28:26.503Z,62.52
2019-02-05T18:30:56.656Z,62.04
2019-02-05T18:33:26.643Z,62.04
2019-02-05T18:35:56.371Z,62.41
2019-02-05T18:38:26.232Z,62.58
2019-02-05T18:40:56.092Z,62.69
2019-02-05T18:43:25.861Z,62.24
2019-02-05T18:45:55.605Z,61.61
2019-02-05T18:48:26.783Z,61.97
2019-02-05T18:50:56.639Z,62.89
2019-02-05T18:53:26.245Z,62.79
2019-02-05T18:55:56.076Z,62.61
2019-02-05T18:58:26.808Z,61.67
2019-02-05T19:00:57.486Z,61.91
2019-02-05T19:03:27.124Z,62.04
2019-02-05T19:05:56.796Z,62.58
2019-02-05T19:08:26.523Z,62.47
2019-02-05T19:10:56.136Z,62.17
2019-02-05T19:13:25.835Z,63.37
2019-02-05T19:15:55.425Z,62.62
2019-02-05T19:18:25.131Z,63.18
2019-02-05T19:20:54.912Z,62.97
2019-02-05T19:23:24.547Z,62.60
2019-02-05T19:26:00.926Z,62.82
2019-02-05T19:28:35.908Z,62.60
2019-02-05T19:31:27.792Z,63.12
2019-02-05T19:33:57.507Z,62.71
2019-02-05T19:36:27.824Z,62.62
2019-02-05T19:38:57.461Z,62.62
2019-02-05T19:41:27.208Z,62.55
2019-02-05T19:43:58.980Z,62.57
2019-02-05T19:46:45.968Z,63.02
2019-02-05T19:49:27.352Z,62.64
2019-02-05T19:51:57.231Z,62.13
2019-02-05T19:54:27.259Z,62.12
2019-02-05T19:56:57.169Z,62.25
2019-02-05T19:59:27.202Z,62.29
2019-02-05T20:01:57.186Z,62.46
2019-02-05T20:04:27.065Z,62.80
2019-02-05T20:06:56.764Z,62.44
2019-02-05T20:09:26.365Z,62.94
2019-02-05T20:11:56.393Z,62.87
2019-02-05T20:14:27.738Z,62.91
2019-02-05T20:16:57.297Z,62.90
2019-02-05T20:19:27.301Z,62.52
2019-02-05T20:21:57.001Z,63.02
2019-02-05T20:24:26.826Z,63.09
2019-02-05T20:26:56.506Z,63.14
2019-02-05T20:29:26.323Z,62.96
2019-02-05T20:31:56.291Z,63.42
2019-02-05T20:34:26.367Z,63.17
2019-02-05T20:36:56.252Z,63.39
2019-02-05T20:39:26.032Z,62.88
2019-02-05T20:41:55.662Z,63.44
2019-02-05T20:44:25.228Z,62.45
2019-02-05T20:46:55.022Z,62.05
2019-02-05T20:49:25.015Z,62.25
2019-02-05T20:51:54.689Z,62.68
2019-02-05T20:54:24.313Z,63.29
2019-02-05T20:56:53.997Z,62.97
2019-02-05T20:59:23.794Z,62.78
2019-02-05T21:01:56.095Z,62.99
2019-02-05T21:04:25.182Z,63.52
2019-02-05T21:06:54.962Z,63.45
2019-02-05T21:09:24.780Z,63.74
2019-02-05T21:11:54.399Z,63.62
2019-02-05T21:14:23.925Z,63.62
2019-02-05T21:16:53.471Z,63.50
2019-02-05T21:19:23.134Z,64.26
2019-02-05T21:21:53.226Z,64.48
2019-02-05T21:24:22.839Z,64.91
2019-02-05T21:26:52.544Z,64.98
2019-02-05T21:29:22.387Z,64.93
2019-02-05T21:31:51.828Z,65.26
2019-02-05T21:34:21.437Z,65.52
2019-02-05T21:36:51.496Z,65.52
2019-02-05T21:39:21.155Z,65.44
2019-02-05T21:41:50.983Z,65.37
2019-02-05T21:44:20.657Z,65.59
2019-02-05T21:46:50.347Z,66.08
2019-02-05T21:49:20.223Z,66.61
2019-02-05T21:51:50.393Z,66.61
2019-02-05T21:54:20.263Z,66.19
2019-02-05T21:56:49.958Z,65.99
2019-02-05T21:59:19.819Z,66.28
2019-02-05T22:01:49.449Z,66.47
2019-02-05T22:04:26.635Z,66.75
2019-02-05T22:06:50.699Z,66.93
2019-02-05T22:09:20.643Z,66.87
2019-02-05T22:11:50.491Z,67.12
2019-02-05T22:14:20.415Z,67.88
2019-02-05T22:16:50.308Z,68.20
2019-02-05T22:19:21.078Z,67.94
2019-02-05T22:21:51.153Z,68.08
2019-02-05T22:24:20.690Z,68.26
2019-02-05T22:26:50.448Z,68.54
2019-02-05T22:29:20.049Z,68.41
2019-02-05T22:31:49.717Z,68.29
2019-02-05T22:34:19.809Z,68.29
2019-02-05T22:36:49.314Z,68.19
2019-02-05T22:39:18.908Z,68.22
2019-02-05T22:41:48.769Z,68.25
2019-02-05T22:44:18.400Z,68.69
2019-02-05T22:46:48.496Z,68.50
2019-02-05T22:49:18.248Z,68.35
2019-02-05T22:51:48.293Z,68.73
2019-02-05T22:54:17.952Z,68.51
2019-02-05T22:56:47.948Z,68.53
2019-02-05T22:59:18.044Z,68.29
2019-02-05T23:01:59.604Z,68.00
2019-02-05T23:05:13.181Z,68.21
2019-02-05T23:07:43.105Z,68.26
2019-02-05T23:10:46.657Z,68.50
2019-02-05T23:13:18.481Z,68.25
2019-02-05T23:15:49.893Z,67.96
2019-02-05T23:18:19.748Z,67.67
2019-02-05T23:20:49.449Z,67.65
2019-02-05T23:23:19.062Z,67.07
2019-02-05T23:25:48.759Z,67.13
2019-02-05T23:28:18.607Z,66.76
2019-02-05T23:30:48.513Z,66.45
